createdAt,value
2022-12-22T00:00:57.892Z,4.40
2022-12-22T00:02:48.299Z,4.37
2022-12-22T00:04:39.009Z,4.41
2022-12-22T00:06:29.573Z,4.39
2022-12-22T00:08:19.833Z,4.38
2022-12-22T00:10:10.273Z,4.44
2022-12-22T00:12:00.403Z,4.43
2022-12-22T00:13:51.295Z,4.37
2022-12-22T00:15:41.504Z,4.45
2022-12-22T00:17:48.253Z,4.51
2022-12-22T00:19:38.859Z,4.66
2022-12-22T00:21:32.908Z,4.69
2022-12-22T00:23:23.486Z,4.82
2022-12-22T00:25:13.401Z,5.03
2022-12-22T00:27:04.555Z,5.44
2022-12-22T00:28:55.459Z,5.70
2022-12-22T00:30:45.711Z,5.67
2022-12-22T00:32:36.133Z,5.65
2022-12-22T00:34:39.122Z,5.63
2022-12-22T00:36:31.531Z,5.72
2022-12-22T00:38:30.748Z,5.86
2022-12-22T00:40:20.657Z,6.14
2022-12-22T00:42:10.640Z,6.25
2022-12-22T00:44:00.905Z,6.21
2022-12-22T00:45:50.921Z,6.09
2022-12-22T00:47:49.190Z,5.99
2022-12-22T00:49:40.397Z,6.13
2022-12-22T00:51:31.186Z,6.10
2022-12-22T00:53:22.616Z,6.04
2022-12-22T00:55:12.820Z,6.13
2022-12-22T00:57:03.140Z,6.15
2022-12-22T00:58:54.278Z,6.10
2022-12-22T01:00:46.472Z,6.04
2022-12-22T01:02:37.132Z,6.15
2022-12-22T01:04:30.356Z,6.20
2022-12-22T01:06:21.491Z,6.22
2022-12-22T01:08:11.938Z,6.33
2022-12-22T01:10:07.696Z,6.31
2022-12-22T01:11:58.055Z,6.50
2022-12-22T01:13:48.321Z,6.47
2022-12-22T01:15:39.205Z,6.54
2022-12-22T01:17:29.393Z,6.61
2022-12-22T01:19:19.607Z,6.61
2022-12-22T01:21:10.878Z,6.80
2022-12-22T01:23:01.381Z,6.73
2022-12-22T01:24:51.535Z,6.69
2022-12-22T01:26:41.814Z,6.68
2022-12-22T01:28:33.318Z,6.75
2022-12-22T01:30:23.964Z,6.75
2022-12-22T01:32:13.847Z,6.73
2022-12-22T01:34:04.058Z,6.75
2022-12-22T01:35:54.396Z,6.77
2022-12-22T01:37:44.680Z,6.66
2022-12-22T01:39:34.665Z,6.64
2022-12-22T01:41:28.773Z,6.64
2022-12-22T01:43:19.040Z,6.83
2022-12-22T01:45:09.305Z,6.74
2022-12-22T01:47:02.585Z,6.87
2022-12-22T01:48:52.814Z,6.80
2022-12-22T01:50:51.196Z,6.84
2022-12-22T01:52:44.569Z,6.87
2022-12-22T01:54:34.755Z,6.82
2022-12-22T01:56:25.591Z,6.83
2022-12-22T01:58:16.118Z,6.78
2022-12-22T02:00:06.579Z,6.76
2022-12-22T02:02:03.055Z,6.83
2022-12-22T02:03:53.488Z,6.78
2022-12-22T02:05:43.754Z,6.74
2022-12-22T02:08:04.951Z,6.72
2022-12-22T02:10:19.306Z,6.77
2022-12-22T02:12:46.446Z,6.68
2022-12-22T02:14:59.228Z,6.74
2022-12-22T02:17:01.054Z,6.71
2022-12-22T02:18:55.640Z,6.69
2022-12-22T02:21:09.023Z,6.76
2022-12-22T02:23:21.114Z,6.81
2022-12-22T02:25:22.208Z,6.78
2022-12-22T02:27:17.046Z,6.82
2022-12-22T02:29:08.342Z,6.87
2022-12-22T02:30:58.563Z,6.84
2022-12-22T02:32:52.629Z,6.91
2022-12-22T02:34:42.729Z,6.98
2022-12-22T02:36:52.682Z,6.92
2022-12-22T02:39:13.896Z,6.99
2022-12-22T02:41:32.143Z,6.99
2022-12-22T02:43:42.439Z,7.08
2022-12-22T02:45:32.739Z,7.01
2022-12-22T02:47:37.550Z,6.95
2022-12-22T02:49:40.171Z,6.88
2022-12-22T02:51:34.927Z,6.81
2022-12-22T02:53:27.115Z,6.81
2022-12-22T02:55:18.223Z,6.76
2022-12-22T02:57:08.382Z,6.75
2022-12-22T02:58:58.813Z,6.83
2022-12-22T03:00:49.523Z,6.78
2022-12-22T03:02:40.345Z,6.85
2022-12-22T03:04:30.907Z,6.65
2022-12-22T03:06:20.992Z,6.57
2022-12-22T03:08:10.970Z,6.59
2022-12-22T03:10:00.942Z,6.77
2022-12-22T03:11:51.041Z,6.65
2022-12-22T03:13:40.896Z,6.68
2022-12-22T03:15:31.372Z,6.68
2022-12-22T03:17:21.470Z,6.86
2022-12-22T03:19:11.626Z,6.71
2022-12-22T03:21:01.756Z,6.56
2022-12-22T03:22:51.967Z,6.53
2022-12-22T03:24:42.121Z,6.54
2022-12-22T03:26:13.770Z,6.57
2022-12-22T03:27:45.423Z,6.63
2022-12-22T03:29:17.083Z,6.56
2022-12-22T03:31:01.060Z,6.52
2022-12-22T03:32:32.736Z,6.62
2022-12-22T03:34:04.348Z,6.69
2022-12-22T03:35:36.297Z,7.02
2022-12-22T03:37:07.903Z,6.97
2022-12-22T03:38:39.482Z,7.05
2022-12-22T03:40:11.427Z,7.08
2022-12-22T03:42:01.462Z,7.43
2022-12-22T03:43:51.674Z,7.45
2022-12-22T03:45:41.935Z,7.47
2022-12-22T03:47:13.571Z,7.57
2022-12-22T03:49:05.778Z,7.62
2022-12-22T03:50:37.496Z,7.59
2022-12-22T03:52:09.131Z,7.88
2022-12-22T03:53:40.797Z,7.89
2022-12-22T03:55:12.412Z,7.85
2022-12-22T03:56:44.826Z,8.29
2022-12-22T03:58:16.357Z,8.24
2022-12-22T03:59:47.914Z,8.15
2022-12-22T04:01:19.598Z,8.08
2022-12-22T04:02:51.380Z,8.05
2022-12-22T04:04:25.848Z,8.37
2022-12-22T04:05:57.387Z,8.35
2022-12-22T04:07:28.976Z,8.52
2022-12-22T04:09:00.579Z,8.60
2022-12-22T04:10:51.421Z,8.69
2022-12-22T04:12:58.344Z,8.58
2022-12-22T04:14:34.370Z,8.40
2022-12-22T04:16:06.852Z,8.30
2022-12-22T04:17:38.479Z,8.35
2022-12-22T04:19:10.163Z,8.24
2022-12-22T04:20:41.816Z,8.35
2022-12-22T04:22:13.462Z,8.21
2022-12-22T04:23:45.089Z,8.14
2022-12-22T04:25:16.834Z,8.22
2022-12-22T04:26:48.444Z,8.18
2022-12-22T04:28:20.163Z,8.13
2022-12-22T04:29:52.189Z,8.12
2022-12-22T04:31:24.184Z,8.11
2022-12-22T04:32:55.838Z,8.13
2022-12-22T04:34:27.410Z,8.08
2022-12-22T04:35:58.949Z,8.08
2022-12-22T04:37:30.684Z,8.73
2022-12-22T04:39:02.318Z,8.72
2022-12-22T04:40:33.880Z,8.70
2022-12-22T04:42:05.541Z,8.67
2022-12-22T04:43:37.274Z,8.48
2022-12-22T04:45:09.277Z,8.52
2022-12-22T04:46:40.892Z,8.44
2022-12-22T04:48:12.595Z,8.36
2022-12-22T04:49:44.250Z,8.40
2022-12-22T04:51:15.866Z,8.58
2022-12-22T04:52:47.483Z,8.58
2022-12-22T04:54:19.106Z,8.56
2022-12-22T04:55:59.632Z,8.48
2022-12-22T04:57:34.348Z,8.42
2022-12-22T04:59:10.376Z,8.40
2022-12-22T05:00:42.632Z,8.36
2022-12-22T05:02:14.410Z,8.33
2022-12-22T05:03:46.323Z,8.57
2022-12-22T05:05:17.941Z,8.85
2022-12-22T05:06:49.507Z,8.74
2022-12-22T05:08:21.109Z,8.82
2022-12-22T05:09:52.732Z,8.78
2022-12-22T05:11:24.412Z,8.80
2022-12-22T05:12:56.089Z,8.78
2022-12-22T05:14:27.601Z,8.66
2022-12-22T05:16:05.802Z,8.71
2022-12-22T05:17:37.404Z,8.76
2022-12-22T05:19:09.084Z,8.64
2022-12-22T05:20:40.725Z,8.75
2022-12-22T05:22:12.492Z,8.74
2022-12-22T05:23:44.696Z,8.55
2022-12-22T05:25:17.139Z,8.59
2022-12-22T05:26:49.455Z,8.55
2022-12-22T05:28:21.130Z,8.50
2022-12-22T05:29:52.728Z,8.45
2022-12-22T05:31:26.203Z,8.40
2022-12-22T05:32:57.865Z,8.41
2022-12-22T05:34:29.569Z,8.43
2022-12-22T05:36:01.726Z,8.46
2022-12-22T05:37:33.606Z,8.72
2022-12-22T05:39:05.220Z,8.68
2022-12-22T05:40:36.904Z,8.59
2022-12-22T05:42:08.463Z,8.59
2022-12-22T05:43:40.416Z,8.64
2022-12-22T05:45:12.348Z,8.92
2022-12-22T05:46:44.057Z,8.80
2022-12-22T05:48:17.150Z,8.75
2022-12-22T05:49:51.514Z,8.65
2022-12-22T05:51:24.190Z,8.58
2022-12-22T05:52:55.744Z,8.63
2022-12-22T05:54:27.479Z,8.84
2022-12-22T05:55:59.185Z,8.78
2022-12-22T05:57:30.872Z,8.57
2022-12-22T05:59:02.409Z,8.45
2022-12-22T06:00:34.042Z,8.40
2022-12-22T06:02:05.658Z,8.21
2022-12-22T06:03:37.593Z,8.16
2022-12-22T06:05:10.343Z,8.07
2022-12-22T06:06:41.904Z,8.09
2022-12-22T06:08:13.493Z,8.24
2022-12-22T06:09:45.136Z,8.43
2022-12-22T06:11:18.264Z,8.54
2022-12-22T06:12:49.920Z,8.76
2022-12-22T06:14:21.615Z,8.79
2022-12-22T06:15:53.703Z,8.83
2022-12-22T06:17:25.641Z,8.67
2022-12-22T06:18:57.266Z,8.52
2022-12-22T06:20:28.900Z,8.47
2022-12-22T06:22:00.611Z,8.77
2022-12-22T06:23:32.252Z,8.81
2022-12-22T06:25:04.189Z,8.58
2022-12-22T06:26:35.801Z,8.63
2022-12-22T06:28:07.660Z,8.71
2022-12-22T06:29:39.346Z,8.60
2022-12-22T06:31:11.086Z,8.63
2022-12-22T06:32:42.995Z,8.72
2022-12-22T06:34:18.146Z,8.78
2022-12-22T06:35:53.911Z,8.84
2022-12-22T06:37:29.991Z,9.07
2022-12-22T06:39:01.767Z,8.95
2022-12-22T06:40:33.557Z,8.86
2022-12-22T06:42:23.719Z,8.76
2022-12-22T06:43:55.352Z,8.78
2022-12-22T06:45:26.917Z,8.70
2022-12-22T06:46:58.612Z,8.74
2022-12-22T06:48:30.502Z,8.56
2022-12-22T06:50:02.264Z,8.48
2022-12-22T06:51:34.021Z,8.42
2022-12-22T06:53:06.877Z,8.56
2022-12-22T06:54:38.514Z,8.72
2022-12-22T06:56:10.129Z,8.92
2022-12-22T06:57:41.800Z,8.94
2022-12-22T06:59:13.656Z,8.86
2022-12-22T07:00:48.529Z,8.90
2022-12-22T07:02:20.419Z,8.85
2022-12-22T07:03:52.287Z,8.82
2022-12-22T07:05:24.578Z,8.96
2022-12-22T07:06:56.389Z,8.83
2022-12-22T07:08:28.073Z,9.11
2022-12-22T07:09:59.714Z,8.88
2022-12-22T07:11:31.377Z,9.06
2022-12-22T07:13:19.120Z,9.02
2022-12-22T07:14:50.969Z,8.88
2022-12-22T07:16:22.701Z,8.94
2022-12-22T07:17:54.330Z,8.90
2022-12-22T07:19:25.949Z,8.93
2022-12-22T07:20:58.468Z,9.05
2022-12-22T07:22:31.096Z,9.20
2022-12-22T07:24:02.995Z,9.29
2022-12-22T07:25:34.978Z,9.22
2022-12-22T07:27:06.618Z,9.23
2022-12-22T07:28:40.249Z,9.27
2022-12-22T07:30:12.145Z,9.21
2022-12-22T07:31:44.036Z,9.18
2022-12-22T07:33:16.512Z,9.02
2022-12-22T07:34:48.783Z,9.27
2022-12-22T07:36:20.659Z,9.30
2022-12-22T07:37:52.244Z,9.33
2022-12-22T07:39:24.136Z,9.17
2022-12-22T07:41:04.540Z,9.09
2022-12-22T07:42:46.034Z,9.07
2022-12-22T07:44:17.694Z,8.94
2022-12-22T07:45:49.320Z,9.02
2022-12-22T07:47:20.932Z,9.18
2022-12-22T07:49:11.782Z,9.31
2022-12-22T07:50:43.403Z,9.51
2022-12-22T07:52:14.999Z,9.55
2022-12-22T07:53:46.683Z,9.48
2022-12-22T07:55:19.316Z,9.57
2022-12-22T07:56:51.458Z,9.56
2022-12-22T07:58:23.041Z,9.61
2022-12-22T07:59:54.672Z,9.54
2022-12-22T08:01:26.867Z,9.51
2022-12-22T08:02:58.853Z,9.65
2022-12-22T08:04:30.609Z,9.64
2022-12-22T08:06:07.089Z,9.59
2022-12-22T08:07:38.943Z,9.47
2022-12-22T08:09:14.757Z,9.39
2022-12-22T08:10:46.463Z,9.42
2022-12-22T08:12:18.121Z,9.45
2022-12-22T08:13:49.999Z,9.50
2022-12-22T08:15:21.597Z,9.45
2022-12-22T08:16:53.274Z,9.51
2022-12-22T08:18:24.939Z,9.50
2022-12-22T08:19:56.506Z,9.44
2022-12-22T08:21:28.154Z,9.36
2022-12-22T08:22:59.886Z,9.37
2022-12-22T08:24:31.682Z,9.32
2022-12-22T08:26:06.334Z,9.30
2022-12-22T08:27:50.952Z,9.38
2022-12-22T08:29:37.101Z,9.34
2022-12-22T08:31:10.150Z,9.36
2022-12-22T08:32:43.464Z,9.36
2022-12-22T08:34:16.918Z,9.37
2022-12-22T08:35:49.181Z,9.39
2022-12-22T08:37:25.365Z,9.39
2022-12-22T08:38:58.808Z,9.38
2022-12-22T08:40:33.448Z,9.32
2022-12-22T08:42:09.274Z,9.24
2022-12-22T08:43:41.350Z,9.21
2022-12-22T08:45:13.198Z,9.29
2022-12-22T08:46:45.101Z,9.31
2022-12-22T08:48:17.245Z,9.47
2022-12-22T08:49:49.924Z,9.32
2022-12-22T08:51:21.754Z,9.35
2022-12-22T08:52:53.436Z,9.41
2022-12-22T08:54:25.206Z,9.52
2022-12-22T08:55:57.041Z,9.52
2022-12-22T08:57:28.825Z,9.65
2022-12-22T08:59:05.238Z,9.62
2022-12-22T09:00:37.122Z,9.72
2022-12-22T09:02:09.068Z,9.74
2022-12-22T09:03:40.835Z,9.70
2022-12-22T09:05:12.618Z,9.76
2022-12-22T09:06:45.288Z,9.73
2022-12-22T09:08:18.048Z,9.75
2022-12-22T09:09:50.119Z,9.84
2022-12-22T09:11:22.495Z,9.93
2022-12-22T09:12:54.275Z,9.88
2022-12-22T09:14:26.345Z,9.83
2022-12-22T09:15:58.109Z,9.70
2022-12-22T09:17:31.943Z,9.69
2022-12-22T09:19:04.697Z,9.66
2022-12-22T09:20:36.476Z,9.68
2022-12-22T09:22:09.619Z,9.60
2022-12-22T09:23:43.216Z,9.57
2022-12-22T09:25:18.895Z,9.62
2022-12-22T09:26:51.532Z,9.59
2022-12-22T09:28:23.893Z,9.62
2022-12-22T09:29:56.924Z,9.55
2022-12-22T09:31:30.309Z,9.53
2022-12-22T09:33:02.902Z,9.51
2022-12-22T09:34:35.359Z,9.43
2022-12-22T09:36:14.272Z,9.48
2022-12-22T09:37:49.167Z,9.44
2022-12-22T09:39:28.350Z,9.52
2022-12-22T09:41:14.409Z,9.38
2022-12-22T09:42:47.169Z,9.42
2022-12-22T09:44:25.449Z,9.38
2022-12-22T09:45:59.260Z,9.32
2022-12-22T09:47:40.449Z,9.22
2022-12-22T09:49:16.660Z,9.24
2022-12-22T09:50:49.117Z,9.19
2022-12-22T09:52:49.130Z,9.16
2022-12-22T09:54:22.378Z,9.16
2022-12-22T09:55:55.385Z,9.11
2022-12-22T09:57:32.028Z,9.16
2022-12-22T09:59:14.463Z,9.28
2022-12-22T10:00:51.922Z,9.35
2022-12-22T10:02:44.534Z,9.41
2022-12-22T10:04:41.526Z,9.53
2022-12-22T10:06:28.831Z,9.62
2022-12-22T10:08:03.397Z,9.60
2022-12-22T10:09:53.420Z,9.51
2022-12-22T10:11:26.743Z,9.52
2022-12-22T10:13:02.860Z,9.57
2022-12-22T10:14:42.427Z,9.54
2022-12-22T10:16:41.424Z,9.58
2022-12-22T10:18:19.017Z,9.52
2022-12-22T10:19:55.092Z,9.52
2022-12-22T10:21:27.581Z,9.57
2022-12-22T10:23:13.369Z,9.60
2022-12-22T10:24:46.180Z,9.60
2022-12-22T10:26:31.415Z,9.64
2022-12-22T10:28:08.652Z,9.63
2022-12-22T10:29:41.247Z,9.60
2022-12-22T10:31:22.344Z,9.65
2022-12-22T10:33:04.316Z,9.65
2022-12-22T10:34:38.721Z,9.78
2022-12-22T10:36:13.288Z,9.83
2022-12-22T10:37:46.390Z,9.70
2022-12-22T10:39:26.887Z,9.71
2022-12-22T10:41:05.721Z,9.76
2022-12-22T10:42:38.115Z,9.77
2022-12-22T10:44:17.311Z,9.77
2022-12-22T10:45:52.460Z,9.76
2022-12-22T10:47:25.196Z,9.76
2022-12-22T10:49:10.979Z,9.82
2022-12-22T10:50:50.282Z,9.89
2022-12-22T10:52:30.974Z,9.94
2022-12-22T10:54:05.653Z,9.88
2022-12-22T10:55:39.172Z,9.88
2022-12-22T10:57:14.606Z,9.80
2022-12-22T10:58:53.256Z,9.86
2022-12-22T11:00:26.959Z,9.87
2022-12-22T11:02:38.584Z,9.91
2022-12-22T11:04:16.893Z,9.91
2022-12-22T11:05:49.295Z,9.92
2022-12-22T11:07:22.366Z,9.90
2022-12-22T11:08:58.200Z,9.80
2022-12-22T11:11:09.787Z,9.95
2022-12-22T11:13:19.756Z,9.97
2022-12-22T11:15:11.292Z,10.03
2022-12-22T11:17:03.528Z,10.06
2022-12-22T11:18:46.618Z,10.00
2022-12-22T11:20:37.481Z,10.06
2022-12-22T11:22:39.800Z,9.94
2022-12-22T11:24:33.763Z,10.00
2022-12-22T11:26:16.768Z,10.00
2022-12-22T11:28:01.242Z,10.03
2022-12-22T11:29:42.619Z,9.93
2022-12-22T11:31:21.210Z,10.01
2022-12-22T11:33:30.605Z,10.01
2022-12-22T11:35:27.633Z,10.07
2022-12-22T11:37:28.100Z,10.12
2022-12-22T11:39:17.476Z,10.11
2022-12-22T11:41:00.271Z,10.17
2022-12-22T11:42:55.837Z,10.21
2022-12-22T11:44:31.728Z,10.17
2022-12-22T11:46:21.433Z,10.28
2022-12-22T11:48:21.044Z,10.22
2022-12-22T11:50:59.572Z,10.26
2022-12-22T11:52:21.914Z,10.22
2022-12-22T11:54:05.361Z,10.15
2022-12-22T11:55:45.692Z,10.21
2022-12-22T11:57:27.030Z,10.29
2022-12-22T11:59:06.037Z,10.36
2022-12-22T12:01:13.661Z,10.47
2022-12-22T12:02:50.840Z,10.52
2022-12-22T12:04:42.267Z,10.65
2022-12-22T12:06:39.970Z,10.56
2022-12-22T12:08:27.390Z,10.67
2022-12-22T12:10:18.432Z,10.61
2022-12-22T12:12:00.589Z,10.65
2022-12-22T12:13:39.377Z,10.56
2022-12-22T12:15:12.272Z,10.52
2022-12-22T12:16:58.325Z,10.53
2022-12-22T12:18:49.156Z,10.64
2022-12-22T12:20:24.568Z,10.61
2022-12-22T12:22:00.346Z,10.59
2022-12-22T12:23:41.761Z,10.65
2022-12-22T12:25:26.222Z,10.60
2022-12-22T12:27:08.109Z,10.59
2022-12-22T12:29:01.725Z,10.48
2022-12-22T12:31:02.475Z,10.36
2022-12-22T12:33:01.695Z,10.42
2022-12-22T12:34:38.025Z,10.58
2022-12-22T12:36:39.236Z,10.70
2022-12-22T12:39:05.842Z,10.72
2022-12-22T12:40:39.171Z,10.69
2022-12-22T12:42:32.712Z,10.63
2022-12-22T12:44:06.359Z,10.71
2022-12-22T12:45:44.821Z,10.86
2022-12-22T12:47:25.583Z,10.98
2022-12-22T12:48:57.809Z,10.98
2022-12-22T12:50:35.011Z,10.83
2022-12-22T12:52:11.786Z,10.77
2022-12-22T12:54:23.545Z,10.69
2022-12-22T12:56:01.067Z,10.72
2022-12-22T12:57:45.651Z,10.72
2022-12-22T12:59:39.896Z,10.71
2022-12-22T13:01:20.792Z,10.70
2022-12-22T13:03:01.606Z,10.81
2022-12-22T13:05:04.347Z,10.70
2022-12-22T13:06:50.496Z,10.71
2022-12-22T13:08:33.728Z,10.64
2022-12-22T13:10:25.976Z,10.67
2022-12-22T13:12:33.605Z,10.64
2022-12-22T13:14:05.502Z,10.60
2022-12-22T13:15:41.181Z,10.74
2022-12-22T13:17:41.537Z,10.79
2022-12-22T13:19:22.503Z,10.76
2022-12-22T13:21:33.846Z,10.70
2022-12-22T13:22:56.150Z,10.60
2022-12-22T13:24:36.989Z,10.60
2022-12-22T13:26:19.046Z,10.69
2022-12-22T13:27:51.051Z,10.69
2022-12-22T13:29:22.862Z,10.71
2022-12-22T13:31:04.855Z,10.71
2022-12-22T13:32:40.511Z,10.68
2022-12-22T13:34:57.277Z,10.59
2022-12-22T13:36:32.352Z,10.54
2022-12-22T13:38:05.238Z,10.57
2022-12-22T13:39:37.051Z,10.52
2022-12-22T13:41:26.907Z,10.56
2022-12-22T13:43:06.559Z,10.60
2022-12-22T13:44:39.342Z,10.46
2022-12-22T13:46:11.319Z,10.51
2022-12-22T13:47:45.364Z,10.49
2022-12-22T13:49:43.446Z,10.44
2022-12-22T13:51:35.677Z,10.47
2022-12-22T13:53:13.038Z,10.45
2022-12-22T13:54:54.872Z,10.35
2022-12-22T13:56:48.612Z,10.24
2022-12-22T13:58:33.477Z,10.24
2022-12-22T14:00:06.227Z,10.25
2022-12-22T14:01:52.514Z,10.08
2022-12-22T14:03:57.666Z,10.02
2022-12-22T14:05:16.512Z,9.97
2022-12-22T14:06:49.331Z,9.94
2022-12-22T14:08:27.323Z,9.96
2022-12-22T14:09:59.799Z,9.88
2022-12-22T14:11:32.639Z,9.90
2022-12-22T14:13:21.774Z,9.75
2022-12-22T14:14:57.379Z,9.75
2022-12-22T14:16:30.545Z,10.02
